This is the latest recevied weather packets stored in our database for station/object WI5KEY. If no packets are shown the sender has not sent any weather packets the latest 10 day(s).
| Time | Temp. | Humidity | Pressure | Rain* | Wind** | Luminosity | Snow |
|---|---|---|---|---|---|---|---|
| 1777916715 | 26.67° C | 65% | 1013.7 hPa | 0 mm | - | - | - |
| 1777915807 | 26.67° C | 67% | 1013.9 hPa | 0 mm | - | - | - |
| 1777914905 | 26.11° C | 70% | 1014.1 hPa | 0 mm | - | - | - |
| 1777914069 | 25.56° C | 70% | 1014.2 hPa | 0 mm | - | - | - |
| 1777913160 | 25° C | 72% | 1014.4 hPa | 0 mm | - | - | - |
| 1777912257 | 25° C | 72% | 1014.5 hPa | 0 mm | - | - | - |
| 1777911355 | 24.44° C | 74% | 1014.7 hPa | 0 mm | - | - | - |
| 1777910451 | 23.33° C | 78% | 1014.5 hPa | 0 mm | - | - | - |
| 1777909563 | 22.78° C | 78% | 1014.8 hPa | 0 mm | - | - | - |
| 1777908646 | 22.22° C | 79% | 1015.2 hPa | 0 mm | - | - | - |
| 1777907743 | 21.67° C | 80% | 1015.1 hPa | 0 mm | - | - | - |
| 1777906840 | 21.67° C | 80% | 1015.2 hPa | 0 mm | - | - | - |
| 1777905936 | 21.11° C | 81% | 1015.3 hPa | 0 mm | - | - | - |
| 1777905031 | 20.56° C | 83% | 1015.4 hPa | 0 mm | - | - | - |
| 1777904129 | 20° C | 82% | 1015.3 hPa | 0 mm | - | - | - |
| 1777903237 | 19.44° C | 83% | 1015.3 hPa | 0 mm | - | - | - |
| 1777902327 | 18.89° C | 85% | 1015.5 hPa | 0 mm | - | - | - |
| 1777901426 | 17.78° C | 88% | 1015.6 hPa | 0 mm | - | - | - |
| 1777900526 | 17.22° C | 89% | 1015.5 hPa | 0 mm | - | - | - |
| 1777899636 | 16.67° C | 89% | 1015.4 hPa | 0 mm | - | - | - |
| 1777898730 | 16.11° C | 89% | 1015.1 hPa | 0 mm | - | - | - |
| 1777897824 | 16.11° C | 89% | 1015.2 hPa | 0 mm | - | - | - |
| 1777896921 | 16.11° C | 88% | 1015.1 hPa | 0 mm | - | - | - |
| 1777896029 | 16.11° C | 88% | 1014.9 hPa | 0 mm | - | - | - |
| 1777895121 | 16.11° C | 88% | 1014.7 hPa | 0 mm | - | - | - |
* Rain latest hour (hover to see other rain measurements)
** Current wind speed in m/s (hover to see current wind gust speed)